Time;durP1;ratioP1;P1;durP2;ratioP2;P2;SDS_P1;SDS_P2;PMS_P1;PMS_P2;Temp;Humidity;BMP_temperature;BMP_pressure;BME280_temperature;BME280_humidity;BME280_pressure;Samples;Min_cycle;Max_cycle;Signal;HPM_P1;HPM_P2
2022/05/17 00:02:12;;;;;;;9.02;3.30;;;15.90;90.90;;;;;;4997803;28;20033;-74
2022/05/17 00:04:38;;;;;;;10.32;3.17;;;15.90;91.00;;;;;;5013793;28;20558;-74
2022/05/17 00:07:04;;;;;;;12.48;3.72;;;15.90;91.10;;;;;;5015298;28;20406;-74
2022/05/17 00:09:30;;;;;;;10.82;3.10;;;15.90;91.20;;;;;;5012986;28;20057;-74
2022/05/17 00:11:57;;;;;;;8.70;3.22;;;15.80;91.20;;;;;;5014572;28;20175;-74
2022/05/17 00:14:23;;;;;;;10.75;3.50;;;15.80;91.30;;;;;;4997705;28;20038;-74
2022/05/17 00:16:49;;;;;;;8.93;3.22;;;15.80;91.30;;;;;;5013676;28;20375;-74
2022/05/17 00:19:16;;;;;;;10.68;3.20;;;15.70;91.40;;;;;;5014952;28;20477;-74
2022/05/17 00:21:44;;;;;;;7.18;3.17;;;15.80;91.50;;;;;;5013602;28;20474;-74
2022/05/17 00:24:11;;;;;;;8.90;3.05;;;15.70;91.60;;;;;;5014692;28;20045;-74
2022/05/17 00:26:37;;;;;;;6.88;3.25;;;15.70;91.70;;;;;;4997297;28;20038;-74
2022/05/17 00:29:04;;;;;;;9.20;2.88;;;15.80;91.80;;;;;;5014832;28;20037;-74
2022/05/17 00:31:30;;;;;;;8.65;3.35;;;15.70;91.90;;;;;;5014687;28;20030;-74
2022/05/17 00:33:56;;;;;;;8.43;3.20;;;15.70;92.00;;;;;;5013462;28;20056;-74
2022/05/17 00:36:22;;;;;;;8.73;2.80;;;15.70;92.10;;;;;;4981078;28;20022;-74
2022/05/17 00:38:48;;;;;;;7.40;3.40;;;15.70;92.20;;;;;;5013282;28;20363;-74
2022/05/17 00:41:13;;;;;;;8.23;3.45;;;15.70;92.10;;;;;;4996901;28;20041;-74
2022/05/17 00:46:46;;;;;;;6.25;2.95;;;15.70;92.10;;;;;;5014709;28;20138;-74
2022/05/17 00:49:15;;;;;;;10.30;3.38;;;15.70;92.20;;;;;;5014288;28;20037;-74
2022/05/17 00:51:43;;;;;;;9.57;3.80;;;15.70;92.20;;;;;;5013067;28;20034;-74
2022/05/17 00:54:13;;;;;;;10.15;3.08;;;15.60;92.30;;;;;;4996830;28;20046;-74
2022/05/17 00:56:53;;;;;;;7.30;3.03;;;15.60;92.40;;;;;;5014094;28;20462;-74
2022/05/17 00:59:19;;;;;;;10.88;3.45;;;15.50;92.60;;;;;;5012891;28;20553;-74
2022/05/17 01:01:45;;;;;;;8.52;3.60;;;15.60;92.70;;;;;;4996461;28;20030;-74
2022/05/17 01:04:16;;;;;;;9.30;3.67;;;15.50;92.80;;;;;;5012710;28;20034;-74
2022/05/17 01:06:53;;;;;;;8.55;4.00;;;15.50;93.00;;;;;;5014192;28;20022;-74
2022/05/17 01:09:21;;;;;;;11.52;3.97;;;15.50;93.10;;;;;;5012949;28;20029;-74
2022/05/17 01:11:47;;;;;;;10.30;4.35;;;15.50;93.20;;;;;;5012691;28;20034;-74
2022/05/17 01:16:58;;;;;;;8.80;4.15;;;15.50;93.20;;;;;;5014010;28;20500;-74
2022/05/17 01:19:24;;;;;;;15.25;4.65;;;15.50;93.30;;;;;;5012665;28;20026;-74
2022/05/17 01:21:51;;;;;;;12.27;3.72;;;15.40;93.40;;;;;;4995921;28;20030;-75
2022/05/17 01:24:16;;;;;;;6.65;3.67;;;15.40;93.40;;;;;;5012360;28;20026;-74
2022/05/17 01:26:44;;;;;;;9.88;3.95;;;15.40;93.50;;;;;;4996220;28;20079;-74
2022/05/17 01:29:11;;;;;;;10.98;4.05;;;15.50;93.60;;;;;;5013741;28;20026;-74
2022/05/17 01:31:38;;;;;;;10.43;4.10;;;15.50;93.70;;;;;;5012467;28;20132;-75
2022/05/17 01:34:10;;;;;;;9.30;3.90;;;15.50;93.80;;;;;;5028921;28;20025;-74
2022/05/17 01:36:37;;;;;;;11.15;3.97;;;15.50;93.90;;;;;;5012361;28;20022;-74
2022/05/17 01:39:04;;;;;;;10.35;4.45;;;15.50;93.90;;;;;;5018091;28;20022;-74
2022/05/17 01:41:30;;;;;;;11.20;3.92;;;15.50;93.90;;;;;;5015292;28;20021;-74
2022/05/17 01:43:56;;;;;;;10.10;3.30;;;15.50;93.90;;;;;;5032998;28;20108;-74
2022/05/17 01:46:22;;;;;;;9.88;4.43;;;15.50;93.90;;;;;;5033084;28;20120;-75
2022/05/17 01:48:49;;;;;;;9.50;3.55;;;15.50;93.90;;;;;;5016295;28;20022;-74
2022/05/17 01:51:15;;;;;;;10.35;3.90;;;15.50;94.00;;;;;;5032275;28;20022;-75
2022/05/17 01:53:41;;;;;;;11.95;3.70;;;15.50;94.00;;;;;;5031422;28;20022;-74
2022/05/17 01:56:09;;;;;;;8.77;4.60;;;15.50;94.10;;;;;;5006792;28;20041;-74
2022/05/17 01:58:35;;;;;;;11.32;3.90;;;15.50;94.20;;;;;;5013132;28;20581;-74
2022/05/17 02:01:02;;;;;;;10.00;4.05;;;15.50;94.30;;;;;;5012151;28;20022;-74
2022/05/17 02:03:27;;;;;;;10.38;4.70;;;15.50;94.40;;;;;;4996110;28;20030;-74
2022/05/17 02:05:53;;;;;;;11.27;4.07;;;15.50;94.40;;;;;;5012093;28;20079;-74
2022/05/17 02:08:19;;;;;;;9.65;4.15;;;15.50;94.40;;;;;;4995816;28;20054;-74
2022/05/17 02:10:44;;;;;;;9.60;3.50;;;15.50;94.50;;;;;;4979822;28;20064;-74
2022/05/17 02:13:10;;;;;;;9.00;4.78;;;15.50;94.50;;;;;;5012060;28;20023;-75
2022/05/17 02:15:37;;;;;;;12.18;4.68;;;15.50;94.50;;;;;;4995480;28;20037;-76
2022/05/17 02:18:03;;;;;;;12.93;4.00;;;15.60;94.90;;;;;;5013356;28;20030;-75
2022/05/17 02:20:30;;;;;;;10.65;4.88;;;15.60;94.70;;;;;;5011999;28;20025;-74
2022/05/17 02:22:56;;;;;;;6.90;4.05;;;15.50;94.60;;;;;;4995909;28;20022;-74
2022/05/17 02:25:22;;;;;;;10.35;4.22;;;15.50;94.70;;;;;;5012980;28;20026;-74
2022/05/17 02:27:48;;;;;;;8.63;4.53;;;15.50;94.60;;;;;;4995544;28;20022;-75
2022/05/17 02:30:14;;;;;;;9.45;4.35;;;15.60;94.60;;;;;;5013080;28;20026;-74
2022/05/17 02:32:40;;;;;;;9.52;4.50;;;15.50;94.60;;;;;;4979515;28;20049;-74
2022/05/17 02:35:08;;;;;;;9.07;4.30;;;15.50;94.60;;;;;;5015237;28;20066;-74
2022/05/17 02:37:34;;;;;;;11.43;4.82;;;15.50;94.60;;;;;;5015465;28;20022;-74
2022/05/17 02:40:00;;;;;;;10.98;4.55;;;15.50;94.60;;;;;;5015353;28;20029;-74
2022/05/17 02:42:26;;;;;;;9.25;4.55;;;15.60;94.60;;;;;;5015504;28;20014;-74
2022/05/17 02:44:51;;;;;;;11.93;4.50;;;15.50;94.60;;;;;;5015337;28;20371;-74
2022/05/17 02:47:17;;;;;;;11.30;5.15;;;15.50;94.60;;;;;;4982910;28;20041;-74
2022/05/17 02:49:45;;;;;;;9.32;4.25;;;15.50;94.60;;;;;;5015338;28;20018;-75
2022/05/17 02:52:12;;;;;;;12.95;4.93;;;15.50;94.60;;;;;;5016464;28;20022;-74
2022/05/17 02:54:38;;;;;;;11.07;4.53;;;15.50;94.90;;;;;;4998929;28;20030;-75
2022/05/17 02:57:05;;;;;;;9.75;4.15;;;15.50;94.90;;;;;;5016622;28;20034;-74
2022/05/17 02:59:31;;;;;;;9.18;4.25;;;15.50;94.70;;;;;;4999212;28;20048;-74
2022/05/17 03:01:57;;;;;;;13.95;4.55;;;15.50;94.80;;;;;;4998822;28;20030;-74
2022/05/17 03:04:23;;;;;;;12.50;4.95;;;15.50;94.80;;;;;;5016277;28;20036;-74
2022/05/17 03:06:48;;;;;;;11.13;5.20;;;15.50;94.80;;;;;;4998751;28;20030;-74
2022/05/17 03:09:14;;;;;;;11.98;5.25;;;15.50;94.90;;;;;;4998667;28;20081;-74
2022/05/17 03:11:42;;;;;;;10.68;5.53;;;15.50;94.90;;;;;;5014876;28;20114;-74
2022/05/17 03:14:08;;;;;;;10.90;4.68;;;15.40;95.10;;;;;;5014855;28;20111;-75
2022/05/17 03:16:34;;;;;;;14.40;5.95;;;15.40;94.80;;;;;;5014756;28;20028;-75
2022/05/17 03:19:01;;;;;;;13.43;6.10;;;15.40;94.80;;;;;;5014745;28;20021;-74
2022/05/17 03:21:27;;;;;;;10.60;5.00;;;15.40;94.90;;;;;;5015976;28;20029;-75
2022/05/17 03:23:53;;;;;;;15.80;6.47;;;15.40;95.00;;;;;;4998379;28;20030;-75
2022/05/17 03:26:19;;;;;;;12.25;5.60;;;15.30;95.00;;;;;;4998217;28;20022;-74
2022/05/17 03:28:44;;;;;;;11.07;5.05;;;15.30;95.10;;;;;;5015949;28;20458;-74
2022/05/17 03:31:11;;;;;;;15.00;5.93;;;15.30;95.10;;;;;;5015849;28;20034;-75
2022/05/17 03:33:38;;;;;;;11.10;4.53;;;15.30;95.10;;;;;;5015711;28;20026;-74
2022/05/17 03:36:05;;;;;;;11.10;4.85;;;15.30;95.10;;;;;;4982013;28;20103;-74
2022/05/17 03:38:30;;;;;;;13.88;5.60;;;15.30;95.10;;;;;;5028540;28;20029;-74
2022/05/17 03:40:58;;;;;;;10.88;5.43;;;15.40;95.10;;;;;;5015920;28;20407;-75
2022/05/17 03:43:25;;;;;;;12.07;4.68;;;15.40;95.10;;;;;;5001267;28;20025;-74
2022/05/17 03:45:50;;;;;;;18.38;5.68;;;15.40;95.40;;;;;;5034519;28;20025;-74
2022/05/17 03:48:17;;;;;;;12.90;6.15;;;15.40;95.10;;;;;;5015638;28;20049;-75
2022/05/17 03:50:42;;;;;;;9.70;5.22;;;15.40;95.10;;;;;;5016208;28;20128;-75
2022/05/17 03:53:08;;;;;;;11.00;5.53;;;15.40;95.10;;;;;;5015931;28;20108;-74
2022/05/17 03:55:34;;;;;;;15.43;6.38;;;15.40;95.10;;;;;;5016514;28;20030;-75
2022/05/17 03:57:59;;;;;;;11.98;5.85;;;15.40;95.10;;;;;;5033822;28;20033;-75
2022/05/17 04:00:25;;;;;;;15.00;6.18;;;15.40;95.20;;;;;;5017462;28;20061;-74
2022/05/17 04:02:51;;;;;;;13.25;6.00;;;15.40;95.20;;;;;;5032803;28;20087;-75
2022/05/17 04:05:17;;;;;;;12.25;5.55;;;15.50;95.30;;;;;;5017299;28;20034;-75
2022/05/17 04:07:43;;;;;;;11.10;5.50;;;15.50;95.30;;;;;;5017352;28;20057;-74
2022/05/17 04:10:14;;;;;;;11.30;4.93;;;15.60;95.30;;;;;;5017292;28;20474;-75
2022/05/17 04:12:39;;;;;;;13.70;6.05;;;15.60;95.30;;;;;;5035242;28;20021;-74
2022/05/17 04:15:07;;;;;;;14.32;5.10;;;15.60;95.10;;;;;;5034907;28;20040;-74
2022/05/17 04:17:33;;;;;;;9.52;4.35;;;15.70;95.10;;;;;;5034569;28;20063;-74
2022/05/17 04:20:00;;;;;;;14.02;6.55;;;15.70;95.00;;;;;;5034542;28;20112;-75
2022/05/17 04:22:26;;;;;;;9.00;4.05;;;15.80;95.00;;;;;;5033369;28;20034;-74
2022/05/17 04:24:56;;;;;;;12.02;4.95;;;15.80;94.90;;;;;;5034336;28;20033;-75
2022/05/17 04:27:22;;;;;;;13.63;5.32;;;15.80;94.80;;;;;;5033169;28;20021;-75
2022/05/17 04:29:48;;;;;;;10.90;5.60;;;15.90;94.80;;;;;;5034434;28;20028;-75
2022/05/17 04:32:14;;;;;;;10.65;4.32;;;15.90;94.80;;;;;;5000513;28;20030;-74
2022/05/17 04:34:39;;;;;;;9.00;4.30;;;15.90;94.70;;;;;;5032893;28;20032;-74
2022/05/17 04:37:05;;;;;;;12.13;5.65;;;16.00;94.70;;;;;;5033161;28;20061;-74
2022/05/17 04:39:31;;;;;;;13.30;5.25;;;16.00;94.70;;;;;;5034154;28;20057;-75
2022/05/17 04:41:57;;;;;;;13.13;5.53;;;16.00;94.70;;;;;;5032041;28;20037;-75
2022/05/17 04:44:23;;;;;;;11.15;5.07;;;16.00;94.60;;;;;;5031942;28;20040;-74
2022/05/17 04:46:49;;;;;;;13.57;5.35;;;16.10;94.60;;;;;;5032003;28;20038;-75
2022/05/17 04:49:14;;;;;;;9.75;5.07;;;16.10;94.50;;;;;;5032752;28;20033;-74
2022/05/17 04:51:41;;;;;;;10.63;4.60;;;16.10;94.50;;;;;;5031823;28;20038;-74
2022/05/17 04:54:07;;;;;;;11.98;5.00;;;16.20;94.80;;;;;;5033635;28;20033;-74
2022/05/17 04:56:34;;;;;;;11.82;4.88;;;16.10;94.50;;;;;;5012289;28;21173;-74
2022/05/17 04:59:00;;;;;;;11.73;5.50;;;16.20;94.50;;;;;;5032010;28;20053;-74
2022/05/17 05:01:26;;;;;;;12.80;4.97;;;16.20;94.50;;;;;;5015803;28;20478;-74
2022/05/17 05:03:52;;;;;;;13.15;5.28;;;16.20;94.50;;;;;;4998859;28;20033;-75
2022/05/17 05:06:17;;;;;;;9.85;4.97;;;16.20;94.50;;;;;;4998353;28;20120;-74
2022/05/17 05:08:43;;;;;;;11.32;4.95;;;16.30;94.60;;;;;;5014753;28;20486;-74
2022/05/17 05:11:09;;;;;;;9.73;4.57;;;16.30;94.60;;;;;;5049085;28;20033;-74
2022/05/17 05:13:34;;;;;;;9.68;5.38;;;16.40;94.60;;;;;;5033760;28;20061;-75
2022/05/17 05:16:00;;;;;;;11.50;4.75;;;16.40;94.50;;;;;;5016044;28;20041;-74
2022/05/17 05:18:27;;;;;;;12.25;4.93;;;16.40;94.50;;;;;;5016251;28;20040;-75
2022/05/17 05:21:08;;;;;;;9.50;4.68;;;16.40;94.40;;;;;;5033716;28;20550;-75
2022/05/17 05:23:34;;;;;;;10.27;4.70;;;16.40;94.50;;;;;;5033836;28;20032;-74
2022/05/17 05:26:00;;;;;;;11.98;5.47;;;16.40;94.50;;;;;;4999528;28;20038;-75
2022/05/17 05:28:26;;;;;;;7.90;4.00;;;16.40;94.60;;;;;;5033515;28;20080;-74
2022/05/17 05:30:54;;;;;;;10.05;4.53;;;16.50;94.60;;;;;;5048979;28;20065;-74
2022/05/17 05:33:20;;;;;;;9.68;4.43;;;16.60;94.60;;;;;;5032978;28;20469;-74
2022/05/17 05:35:45;;;;;;;10.38;4.63;;;16.60;94.60;;;;;;5033193;28;20083;-75
2022/05/17 05:38:11;;;;;;;14.07;4.53;;;16.60;94.50;;;;;;5031495;28;20048;-75
2022/05/17 05:40:36;;;;;;;11.07;4.53;;;16.70;94.50;;;;;;5032733;28;20057;-75
2022/05/17 05:43:02;;;;;;;11.30;4.90;;;16.80;94.50;;;;;;5015752;28;20087;-76
2022/05/17 05:45:28;;;;;;;11.52;4.90;;;16.80;94.40;;;;;;5015485;28;20029;-75
2022/05/17 05:47:53;;;;;;;10.80;4.45;;;16.80;94.30;;;;;;5015223;28;20107;-75
2022/05/17 05:50:19;;;;;;;11.30;5.13;;;16.90;94.20;;;;;;5031913;28;20033;-76
2022/05/17 05:52:46;;;;;;;11.43;5.15;;;16.90;94.20;;;;;;5015894;28;20029;-76
2022/05/17 05:55:19;;;;;;;12.52;4.60;;;17.00;94.10;;;;;;5015652;28;20076;-76
2022/05/17 05:57:44;;;;;;;8.85;4.38;;;17.00;94.10;;;;;;5031824;28;20036;-76
2022/05/17 06:00:11;;;;;;;10.98;4.95;;;17.10;94.10;;;;;;5015455;28;20037;-75
2022/05/17 06:02:38;;;;;;;14.05;5.30;;;17.10;94.00;;;;;;5015605;28;20049;-76
2022/05/17 06:05:04;;;;;;;10.18;5.22;;;17.20;93.90;;;;;;5031700;28;20025;-75
2022/05/17 06:07:29;;;;;;;9.77;4.78;;;17.20;93.80;;;;;;5032906;28;20060;-79
2022/05/17 06:09:55;;;;;;;10.27;4.28;;;17.20;93.70;;;;;;5019130;28;20053;-80
2022/05/17 06:12:20;;;;;;;11.68;5.35;;;17.30;93.70;;;;;;5035806;28;20045;-80
2022/05/17 06:14:46;;;;;;;13.05;6.28;;;17.30;93.70;;;;;;5035492;28;20053;-79
2022/05/17 06:17:12;;;;;;;11.23;4.80;;;17.40;93.70;;;;;;5019509;28;20487;-81
2022/05/17 06:19:37;;;;;;;14.85;5.07;;;17.40;93.50;;;;;;5018721;28;20032;-79
2022/05/17 06:22:03;;;;;;;12.88;5.15;;;17.50;93.50;;;;;;5019140;28;20065;-78
2022/05/17 06:24:29;;;;;;;9.25;4.60;;;17.50;93.40;;;;;;5018612;28;20071;-78
2022/05/17 06:26:55;;;;;;;10.68;5.18;;;17.60;93.40;;;;;;5035582;28;20021;-77
2022/05/17 06:29:20;;;;;;;13.60;5.53;;;17.70;93.40;;;;;;5036582;28;20033;-78
2022/05/17 06:31:46;;;;;;;9.73;5.32;;;17.70;93.20;;;;;;5036357;28;20417;-78
2022/05/17 06:34:11;;;;;;;11.77;5.85;;;17.80;93.10;;;;;;5035537;28;20045;-79
2022/05/17 06:36:39;;;;;;;12.43;5.63;;;17.90;93.00;;;;;;5022685;28;20030;-80
2022/05/17 06:39:08;;;;;;;9.95;5.30;;;18.00;92.90;;;;;;5028729;28;20056;-79
2022/05/17 06:41:34;;;;;;;10.18;5.50;;;18.00;92.70;;;;;;5018993;28;20026;-78
2022/05/17 06:44:00;;;;;;;7.70;4.50;;;18.10;92.60;;;;;;5034789;28;20165;-78
2022/05/17 06:46:25;;;;;;;12.30;5.20;;;18.20;92.40;;;;;;5018449;28;20058;-79
2022/05/17 06:48:51;;;;;;;8.68;5.43;;;18.20;92.30;;;;;;5019005;28;20029;-79
2022/05/17 06:51:17;;;;;;;12.70;5.43;;;18.30;92.20;;;;;;5036340;28;20068;-79
2022/05/17 06:53:42;;;;;;;11.23;5.85;;;18.30;92.00;;;;;;5018506;28;20355;-79
2022/05/17 06:56:08;;;;;;;11.50;5.60;;;18.40;91.90;;;;;;5018631;28;20037;-79
2022/05/17 06:58:34;;;;;;;9.65;5.82;;;18.50;91.80;;;;;;5036111;28;20438;-79
2022/05/17 07:01:00;;;;;;;9.63;5.50;;;18.50;91.70;;;;;;5034779;28;20029;-79
2022/05/17 07:03:25;;;;;;;8.43;4.80;;;18.60;91.60;;;;;;5034836;28;20017;-79
2022/05/17 07:05:51;;;;;;;9.02;5.13;;;18.60;91.40;;;;;;5035987;28;20128;-79
2022/05/17 07:08:18;;;;;;;9.82;4.75;;;18.70;91.30;;;;;;5036093;28;20052;-79
2022/05/17 07:13:32;;;;;;;11.00;4.72;;;18.80;91.00;;;;;;5025856;28;20089;-79
2022/05/17 07:15:58;;;;;;;8.63;4.80;;;18.90;91.00;;;;;;5034603;28;20060;-79
2022/05/17 07:18:26;;;;;;;10.85;4.72;;;18.90;90.90;;;;;;5018318;28;20378;-79
2022/05/17 07:20:51;;;;;;;11.90;5.75;;;18.90;90.80;;;;;;5034272;28;20068;-80
2022/05/17 07:23:19;;;;;;;9.68;5.20;;;19.00;90.80;;;;;;5018098;28;20478;-79
2022/05/17 07:25:45;;;;;;;10.32;5.30;;;19.00;90.60;;;;;;5034341;28;20500;-79
2022/05/17 07:28:17;;;;;;;13.55;5.45;;;19.10;90.50;;;;;;5035633;28;20018;-79
2022/05/17 07:30:43;;;;;;;7.13;4.45;;;19.10;90.40;;;;;;5035728;28;20068;-78
2022/05/17 07:33:08;;;;;;;12.15;5.60;;;19.10;90.30;;;;;;5001652;28;20032;-79
2022/05/17 07:35:34;;;;;;;9.65;4.78;;;19.10;90.20;;;;;;5018050;28;20034;-79
2022/05/17 07:38:01;;;;;;;9.75;5.43;;;19.10;90.10;;;;;;5034338;28;20362;-80
2022/05/17 07:40:27;;;;;;;7.65;4.43;;;19.20;90.10;;;;;;5017828;28;20478;-79
2022/05/17 07:42:54;;;;;;;11.85;4.60;;;19.30;90.10;;;;;;5035338;28;20029;-79
2022/05/17 07:45:20;;;;;;;9.90;4.88;;;19.30;89.80;;;;;;5017839;28;20116;-79
2022/05/17 07:47:46;;;;;;;10.73;5.05;;;19.20;89.30;;;;;;5035193;28;20473;-79
2022/05/17 07:50:12;;;;;;;10.93;5.68;;;19.30;89.20;;;;;;5035159;28;20033;-79
2022/05/17 07:52:38;;;;;;;11.13;6.85;;;19.30;89.20;;;;;;5035306;28;20037;-79
2022/05/17 07:55:05;;;;;;;13.10;8.45;;;19.30;89.00;;;;;;5035128;28;20057;-79
2022/05/17 07:57:31;;;;;;;15.52;6.68;;;19.30;88.90;;;;;;5035225;28;20039;-79
2022/05/17 07:59:56;;;;;;;11.73;5.95;;;19.30;88.60;;;;;;5017573;28;20100;-79
2022/05/17 08:02:22;;;;;;;13.80;6.53;;;19.40;88.40;;;;;;5017441;28;20378;-79
2022/05/17 08:04:48;;;;;;;10.35;4.78;;;19.40;88.10;;;;;;5034927;28;20034;-79
2022/05/17 08:07:14;;;;;;;16.42;5.55;;;19.30;87.90;;;;;;5034893;28;20056;-79
2022/05/17 08:09:39;;;;;;;9.18;4.97;;;19.40;87.90;;;;;;5033577;28;20030;-79
2022/05/17 08:12:07;;;;;;;10.23;4.93;;;19.40;87.80;;;;;;5017357;28;20030;-79
2022/05/17 08:14:37;;;;;;;11.27;5.00;;;19.40;87.50;;;;;;5034831;28;20026;-78
2022/05/17 08:17:06;;;;;;;11.00;5.10;;;19.40;87.40;;;;;;5033519;28;20084;-78
2022/05/17 08:19:32;;;;;;;11.05;4.38;;;19.50;87.50;;;;;;5034711;28;20040;-78
2022/05/17 08:21:57;;;;;;;9.27;4.60;;;19.50;87.60;;;;;;5033697;28;20029;-78
2022/05/17 08:24:23;;;;;;;10.75;4.55;;;19.60;87.20;;;;;;5017326;28;20095;-78
2022/05/17 08:29:33;;;;;;;8.57;3.25;;;19.60;86.50;;;;;;5019905;28;20041;-78
2022/05/17 08:34:44;;;;;;;7.05;2.80;;;19.70;85.90;;;;;;5019600;28;20547;-79
2022/05/17 08:37:09;;;;;;;8.38;3.85;;;19.80;85.50;;;;;;5016990;28;20116;-79
2022/05/17 08:39:35;;;;;;;7.20;3.15;;;19.80;85.20;;;;;;5000219;28;20107;-79
2022/05/17 08:42:38;;;;;;;8.73;3.33;;;19.90;85.40;;;;;;5000500;28;20029;-79
2022/05/17 08:45:14;;;;;;;8.25;3.10;;;19.90;85.60;;;;;;5034128;28;20108;-79
2022/05/17 08:47:51;;;;;;;9.60;2.15;;;19.90;85.50;;;;;;5033985;28;20567;-79
2022/05/17 08:50:23;;;;;;;8.82;2.00;;;20.00;85.20;;;;;;5032816;28;20014;-79
2022/05/17 08:52:49;;;;;;;7.82;2.92;;;20.10;84.70;;;;;;5032805;28;20025;-79
2022/05/17 08:55:26;;;;;;;8.95;2.92;;;20.10;84.30;;;;;;5032793;28;20025;-79
2022/05/17 08:58:17;;;;;;;8.50;3.42;;;20.20;84.10;;;;;;5033888;28;20041;-79
2022/05/17 09:00:47;;;;;;;11.40;3.00;;;20.30;83.80;;;;;;5032610;28;20026;-79
2022/05/17 09:03:31;;;;;;;9.18;3.65;;;20.40;83.50;;;;;;5033683;28;20095;-78
2022/05/17 09:06:15;;;;;;;9.32;3.42;;;20.40;83.20;;;;;;5049007;28;20040;-79
2022/05/17 09:08:46;;;;;;;;;;;20.50;82.80;;;;;;5032833;28;20022;-80
2022/05/17 09:11:18;;;;;;;6.20;2.30;;;20.50;82.50;;;;;;5032618;28;19909;-79
2022/05/17 09:13:57;;;;;;;7.20;2.20;;;20.60;82.60;;;;;;5032355;28;20159;-79
2022/05/17 09:16:26;;;;;;;6.97;2.58;;;20.70;82.30;;;;;;5032353;28;20034;-79
2022/05/17 09:18:52;;;;;;;7.25;2.47;;;20.90;82.00;;;;;;5033729;28;20021;-79
2022/05/17 09:21:39;;;;;;;7.35;2.38;;;20.90;81.60;;;;;;5032356;28;20037;-79
2022/05/17 09:24:10;;;;;;;5.20;1.85;;;21.00;80.80;;;;;;5033580;28;20541;-81
2022/05/17 09:26:37;;;;;;;7.13;2.72;;;21.10;80.40;;;;;;5032176;28;20140;-79
2022/05/17 09:29:20;;;;;;;8.55;2.58;;;21.20;79.90;;;;;;5032271;28;20021;-79
2022/05/17 09:31:54;;;;;;;9.57;3.25;;;21.30;79.30;;;;;;5033429;28;20112;-79
2022/05/17 09:34:34;;;;;;;7.72;3.33;;;21.30;79.00;;;;;;5033516;28;20115;-79
2022/05/17 09:37:20;;;;;;;9.05;3.33;;;21.30;78.80;;;;;;5033674;28;20017;-79
2022/05/17 09:39:51;;;;;;;8.55;2.88;;;21.40;78.80;;;;;;5033517;28;20038;-79
2022/05/17 09:42:36;;;;;;;7.10;2.88;;;21.40;78.60;;;;;;5033180;28;20014;-79
2022/05/17 09:45:10;;;;;;;6.05;2.45;;;21.40;78.30;;;;;;5033167;28;20363;-79
2022/05/17 09:47:44;;;;;;;7.30;2.60;;;21.40;78.10;;;;;;5033257;28;20046;-78
2022/05/17 09:53:05;;;;;;;9.90;2.47;;;21.40;77.80;;;;;;5033837;28;20112;-78
2022/05/17 09:55:32;;;;;;;6.65;2.00;;;21.30;77.70;;;;;;5031898;28;20025;-78
2022/05/17 09:58:04;;;;;;;6.68;2.13;;;21.30;77.60;;;;;;5031881;28;20030;-79
2022/05/17 10:00:40;;;;;;;5.70;1.63;;;21.40;77.50;;;;;;5032041;28;20021;-78
2022/05/17 10:03:30;;;;;;;7.95;1.70;;;21.40;77.20;;;;;;5031892;28;20029;-78
2022/05/17 10:06:00;;;;;;;6.38;1.63;;;21.50;77.10;;;;;;5033107;28;20061;-78
2022/05/17 10:08:31;;;;;;;8.18;1.63;;;21.60;76.80;;;;;;5033194;28;20041;-80
2022/05/17 10:11:16;;;;;;;9.45;2.10;;;21.70;76.50;;;;;;5032982;28;20021;-80
2022/05/17 10:14:00;;;;;;;7.65;2.17;;;21.90;76.20;;;;;;5031898;28;20106;-79
2022/05/17 10:16:33;;;;;;;7.45;1.55;;;22.00;76.00;;;;;;5031800;28;20474;-78
2022/05/17 10:19:02;;;;;;;;;;;22.20;75.70;;;;;;5032466;28;20021;-80
2022/05/17 10:21:46;;;;;;;5.82;1.95;;;22.40;75.40;;;;;;5034207;28;19905;-79
2022/05/17 10:24:20;;;;;;;5.43;2.40;;;22.60;75.50;;;;;;5032899;28;20029;-78
2022/05/17 10:26:55;;;;;;;8.52;2.63;;;22.80;74.80;;;;;;5032734;28;20029;-79
2022/05/17 10:29:45;;;;;;;8.02;2.67;;;23.00;74.00;;;;;;5032929;28;20030;-79
2022/05/17 10:32:31;;;;;;;7.05;2.88;;;23.10;73.20;;;;;;5032821;28;20029;-80
2022/05/17 10:35:02;;;;;;;8.00;2.72;;;23.30;73.10;;;;;;5032082;28;20040;-78
2022/05/17 10:37:38;;;;;;;6.75;2.30;;;23.40;72.30;;;;;;5032787;28;20022;-80
2022/05/17 10:40:07;;;;;;;7.20;2.53;;;23.50;71.50;;;;;;5031171;28;20021;-79
2022/05/17 10:42:34;;;;;;;8.38;2.65;;;23.60;71.00;;;;;;5032646;28;20060;-78
2022/05/17 10:45:00;;;;;;;7.22;1.90;;;23.70;70.50;;;;;;5032624;28;20034;-79
2022/05/17 10:47:46;;;;;;;7.72;3.42;;;23.80;70.10;;;;;;5014904;28;20064;-79
2022/05/17 10:50:24;;;;;;;11.48;3.00;;;23.90;69.60;;;;;;5032765;28;20021;-79
2022/05/17 10:53:08;;;;;;;6.43;2.53;;;24.10;69.30;;;;;;5031836;28;20107;-84
2022/05/17 10:55:45;;;;;;;7.68;2.72;;;24.20;69.00;;;;;;5035245;28;20033;-78
2022/05/17 10:58:35;;;;;;;7.20;2.88;;;24.30;68.40;;;;;;5036186;28;20033;-80
2022/05/17 11:01:12;;;;;;;8.93;2.85;;;24.40;67.70;;;;;;5036233;28;20029;-79
2022/05/17 11:04:05;;;;;;;9.85;3.13;;;24.50;67.20;;;;;;5036224;28;20029;-79
2022/05/17 11:06:51;;;;;;;5.67;2.20;;;24.60;66.60;;;;;;5051396;28;20029;-79
2022/05/17 11:09:19;;;;;;;10.57;2.58;;;24.60;65.90;;;;;;5034639;28;20307;-75
2022/05/17 11:11:57;;;;;;;9.32;2.58;;;24.70;65.80;;;;;;5034713;28;20381;-76
2022/05/17 11:14:31;;;;;;;8.05;2.10;;;24.80;65.30;;;;;;5036080;28;20112;-75
2022/05/17 11:17:13;;;;;;;7.80;2.15;;;24.90;64.90;;;;;;5034763;28;20068;-76
2022/05/17 11:19:39;;;;;;;7.85;2.17;;;25.00;64.40;;;;;;5034819;28;20030;-76
2022/05/17 11:22:14;;;;;;;8.88;2.45;;;25.00;64.10;;;;;;5034488;28;20051;-75
2022/05/17 11:25:25;;;;;;;6.18;2.30;;;25.10;63.80;;;;;;5035720;28;20033;-76
2022/05/17 11:27:56;;;;;;;12.20;2.58;;;25.20;63.20;;;;;;4988115;28;20038;-76
2022/05/17 11:30:53;;;;;;;8.27;2.90;;;25.30;63.20;;;;;;5034599;28;20022;-75
2022/05/17 11:33:22;;;;;;;9.05;2.33;;;25.40;62.80;;;;;;5007203;28;20176;-76
2022/05/17 11:35:51;;;;;;;6.25;2.25;;;25.50;62.60;;;;;;5034112;28;20486;-76
2022/05/17 11:38:35;;;;;;;6.15;2.60;;;25.50;62.20;;;;;;5034169;28;20504;-75
2022/05/17 11:41:08;;;;;;;7.45;2.13;;;25.50;61.60;;;;;;5035332;28;20501;-76
2022/05/17 11:43:40;;;;;;;7.68;2.28;;;25.60;62.40;;;;;;5034180;28;20030;-75
2022/05/17 11:46:29;;;;;;;9.75;1.85;;;25.60;61.40;;;;;;5034138;28;20556;-75
2022/05/17 11:49:11;;;;;;;6.50;2.63;;;25.60;61.20;;;;;;5038828;28;20044;-77
2022/05/17 11:51:58;;;;;;;7.90;2.10;;;25.70;61.30;;;;;;5012687;28;20084;-76
2022/05/17 11:54:42;;;;;;;7.05;2.30;;;25.70;61.80;;;;;;4985917;28;20037;-76
2022/05/17 11:57:23;;;;;;;6.53;1.88;;;25.70;60.90;;;;;;5015738;28;20048;-76
2022/05/17 12:00:04;;;;;;;5.78;1.67;;;25.80;60.70;;;;;;5013107;28;20419;-76
2022/05/17 12:02:51;;;;;;;4.88;1.67;;;25.90;61.10;;;;;;5015312;28;20425;-74
2022/05/17 12:05:43;;;;;;;6.65;1.85;;;25.90;60.10;;;;;;4997370;28;20441;-74
2022/05/17 12:08:27;;;;;;;6.43;2.28;;;25.90;59.90;;;;;;5015083;28;20022;-76
2022/05/17 12:11:11;;;;;;;7.57;1.90;;;26.00;59.90;;;;;;5015048;28;20030;-75
2022/05/17 12:14:11;;;;;;;6.85;2.25;;;26.20;59.70;;;;;;5015092;28;20022;-75
2022/05/17 12:16:44;;;;;;;6.30;1.95;;;26.30;59.40;;;;;;5030260;28;20036;-75
2022/05/17 12:19:26;;;;;;;8.27;2.35;;;26.40;59.40;;;;;;5014893;28;20075;-74
2022/05/17 12:22:18;;;;;;;6.25;2.40;;;26.50;59.10;;;;;;5015084;28;20057;-75
2022/05/17 12:25:09;;;;;;;6.90;2.80;;;26.60;58.80;;;;;;5014810;28;20033;-75
2022/05/17 12:27:46;;;;;;;5.00;2.25;;;26.80;58.90;;;;;;5029974;28;20561;-74
2022/05/17 12:33:27;;;;;;;8.90;2.55;;;27.10;58.40;;;;;;5034710;28;20120;-75
2022/05/17 12:35:56;;;;;;;6.63;2.03;;;27.40;58.50;;;;;;5049334;28;20029;-75
2022/05/17 12:44:11;;;;;;;7.72;2.00;;;28.50;57.30;;;;;;5034721;28;20076;-76
2022/05/17 12:46:37;;;;;;;7.85;2.20;;;28.80;57.10;;;;;;5029280;28;20033;-76
2022/05/17 12:49:14;;;;;;;6.45;2.60;;;29.10;57.00;;;;;;5013032;28;20045;-75
2022/05/17 12:51:41;;;;;;;7.05;2.20;;;29.30;55.80;;;;;;5014488;28;20075;-74
2022/05/17 12:54:16;;;;;;;5.95;2.03;;;29.50;55.60;;;;;;5014525;28;20030;-76
2022/05/17 12:56:43;;;;;;;6.80;2.13;;;29.70;55.10;;;;;;5012617;28;20030;-76
2022/05/17 12:59:11;;;;;;;7.85;2.10;;;29.90;55.00;;;;;;5029258;28;20030;-76
2022/05/17 13:01:51;;;;;;;6.45;1.85;;;30.20;54.60;;;;;;5013313;28;20367;-75
2022/05/17 13:04:17;;;;;;;6.25;1.63;;;30.50;53.80;;;;;;5029305;28;20025;-75
2022/05/17 13:06:46;;;;;;;4.72;1.20;;;30.80;53.30;;;;;;5012903;28;20030;-76
2022/05/17 13:09:21;;;;;;;4.72;1.13;;;31.10;52.60;;;;;;5014173;28;20037;-75
2022/05/17 13:11:48;;;;;;;5.07;1.52;;;31.30;51.40;;;;;;5012828;28;20083;-74
2022/05/17 13:14:33;;;;;;;6.22;1.63;;;31.50;51.00;;;;;;5012738;28;20497;-77
2022/05/17 13:17:17;;;;;;;4.15;1.00;;;31.60;49.90;;;;;;5012172;28;20022;-75
2022/05/17 13:19:47;;;;;;;5.15;1.02;;;31.90;49.60;;;;;;5011188;28;20091;-76
2022/05/17 13:22:17;;;;;;;3.55;1.23;;;32.10;49.60;;;;;;5010089;28;20029;-77
2022/05/17 13:24:45;;;;;;;5.53;1.10;;;32.30;48.90;;;;;;5001335;28;20029;-75